createdAt,value
2017-12-06T00:01:30.035Z,3.80
2017-12-06T00:03:56.240Z,3.80
2017-12-06T00:06:22.468Z,3.90
2017-12-06T00:08:48.709Z,3.80
2017-12-06T00:11:14.949Z,3.80
2017-12-06T00:13:47.224Z,3.90
2017-12-06T00:16:13.813Z,4.00
2017-12-06T00:18:40.062Z,4.00
2017-12-06T00:21:06.289Z,4.00
2017-12-06T00:23:33.077Z,4.00
2017-12-06T00:25:59.291Z,3.90
2017-12-06T00:28:25.561Z,3.70
2017-12-06T00:30:51.783Z,3.70
2017-12-06T00:33:18.082Z,3.70
2017-12-06T00:35:44.849Z,3.80
2017-12-06T00:38:11.305Z,3.80
2017-12-06T00:40:37.550Z,3.80
2017-12-06T00:43:03.826Z,4.00
2017-12-06T00:45:30.070Z,4.00
2017-12-06T00:47:57.332Z,4.00
2017-12-06T00:50:23.560Z,4.00
2017-12-06T00:52:49.855Z,3.90
2017-12-06T00:55:16.432Z,3.60
2017-12-06T00:57:43.625Z,3.60
2017-12-06T01:00:10.226Z,3.60
2017-12-06T01:02:36.463Z,3.60
2017-12-06T01:05:02.909Z,3.70
2017-12-06T01:07:29.128Z,3.80
2017-12-06T01:09:55.344Z,3.90
2017-12-06T01:12:21.574Z,4.00
2017-12-06T01:14:47.776Z,4.00
2017-12-06T01:17:14.756Z,4.00
2017-12-06T01:19:41.873Z,3.80
2017-12-06T01:22:08.096Z,3.70
2017-12-06T01:24:34.313Z,3.60
2017-12-06T01:27:00.491Z,3.70
2017-12-06T01:29:26.727Z,3.70
2017-12-06T01:31:52.941Z,3.70
2017-12-06T01:34:19.156Z,3.60
2017-12-06T01:36:45.355Z,3.50
2017-12-06T01:39:11.623Z,3.60
2017-12-06T01:41:37.847Z,3.60
2017-12-06T01:44:04.068Z,3.70
2017-12-06T01:46:30.332Z,3.80
2017-12-06T01:48:56.526Z,3.80
2017-12-06T01:51:22.751Z,3.70
2017-12-06T01:53:48.992Z,3.70
2017-12-06T01:56:15.239Z,3.80
2017-12-06T01:58:41.868Z,3.80
2017-12-06T02:01:08.072Z,3.80
2017-12-06T02:03:34.305Z,3.90
2017-12-06T02:06:01.077Z,3.90
2017-12-06T02:08:27.673Z,3.90
2017-12-06T02:10:53.885Z,3.90
2017-12-06T02:13:20.095Z,3.80
2017-12-06T02:15:46.323Z,3.80
2017-12-06T02:18:12.524Z,3.80
2017-12-06T02:20:39.188Z,3.80
2017-12-06T02:23:05.443Z,3.80
2017-12-06T02:25:31.711Z,3.80
2017-12-06T02:27:58.333Z,3.60
2017-12-06T02:30:24.570Z,3.60
2017-12-06T02:32:50.788Z,3.60
2017-12-06T02:35:17.001Z,3.70
2017-12-06T02:37:43.233Z,3.70
2017-12-06T02:40:21.532Z,3.50
2017-12-06T02:42:59.846Z,3.40
2017-12-06T02:45:26.919Z,3.50
2017-12-06T02:47:53.145Z,3.60
2017-12-06T02:50:19.394Z,3.60
2017-12-06T02:52:45.984Z,3.60
2017-12-06T02:55:12.226Z,3.60
2017-12-06T02:57:38.462Z,3.60
2017-12-06T03:00:04.666Z,3.70
2017-12-06T03:02:30.870Z,3.70
2017-12-06T03:04:57.123Z,3.70
2017-12-06T03:07:23.312Z,3.70
2017-12-06T03:09:49.618Z,3.70
2017-12-06T03:12:16.217Z,3.70
2017-12-06T03:14:42.436Z,3.70
2017-12-06T03:17:08.631Z,3.70
2017-12-06T03:19:34.861Z,3.50
2017-12-06T03:22:01.063Z,3.50
2017-12-06T03:24:27.334Z,3.60
2017-12-06T03:26:53.535Z,3.60
2017-12-06T03:29:19.787Z,3.50
2017-12-06T03:31:45.982Z,3.40
2017-12-06T03:34:12.568Z,3.60
2017-12-06T03:36:38.783Z,3.60
2017-12-06T03:39:04.974Z,3.60
2017-12-06T03:41:31.555Z,3.40
2017-12-06T03:43:57.755Z,3.40
2017-12-06T03:46:23.972Z,3.50
2017-12-06T03:48:50.204Z,3.40
2017-12-06T03:51:16.399Z,3.30
2017-12-06T03:53:42.595Z,3.30
2017-12-06T03:56:08.813Z,3.30
2017-12-06T03:58:35.044Z,3.20
2017-12-06T04:01:02.244Z,3.40
2017-12-06T04:03:28.436Z,3.40
2017-12-06T04:05:54.708Z,3.50
2017-12-06T04:08:21.274Z,3.30
2017-12-06T04:10:47.476Z,3.30
2017-12-06T04:13:14.071Z,3.40
2017-12-06T04:15:40.289Z,3.40
2017-12-06T04:18:06.523Z,3.30
2017-12-06T04:20:32.734Z,3.20
2017-12-06T04:22:58.936Z,3.00
2017-12-06T04:25:25.164Z,3.20
2017-12-06T04:27:51.355Z,3.20
2017-12-06T04:30:17.577Z,3.30
2017-12-06T04:32:43.790Z,3.40
2017-12-06T04:35:10.008Z,3.70
2017-12-06T04:37:36.228Z,3.80
2017-12-06T04:40:02.497Z,3.80
2017-12-06T04:42:30.732Z,3.90
2017-12-06T04:44:56.962Z,3.90
2017-12-06T04:47:23.195Z,3.90
2017-12-06T04:49:49.432Z,4.00
2017-12-06T04:52:15.655Z,3.80
2017-12-06T04:54:41.873Z,3.60
2017-12-06T04:57:08.091Z,3.60
2017-12-06T04:59:34.330Z,3.50
2017-12-06T05:02:00.553Z,3.60
2017-12-06T05:04:26.819Z,3.60
2017-12-06T05:06:53.072Z,3.90
2017-12-06T05:09:19.268Z,4.00
2017-12-06T05:11:46.044Z,4.10
2017-12-06T05:14:12.235Z,4.00
2017-12-06T05:16:38.451Z,4.00
2017-12-06T05:19:04.685Z,4.00
2017-12-06T05:21:30.908Z,4.10
2017-12-06T05:23:57.148Z,4.10
2017-12-06T05:26:23.406Z,4.10
2017-12-06T05:28:49.638Z,3.90
2017-12-06T05:31:15.891Z,3.80
2017-12-06T05:33:42.088Z,3.80
2017-12-06T05:36:08.297Z,3.80
2017-12-06T05:38:34.545Z,4.00
2017-12-06T05:41:01.629Z,4.10
2017-12-06T05:43:27.819Z,4.00
2017-12-06T05:45:54.055Z,4.00
2017-12-06T05:48:20.639Z,4.00
2017-12-06T05:50:46.882Z,4.00
2017-12-06T05:53:13.118Z,3.90
2017-12-06T05:55:39.334Z,4.10
2017-12-06T05:58:05.544Z,4.10
2017-12-06T06:00:31.777Z,4.10
2017-12-06T06:02:58.045Z,4.20
2017-12-06T06:05:24.565Z,4.20
2017-12-06T06:07:50.755Z,4.10
2017-12-06T06:10:16.974Z,4.30
2017-12-06T06:12:43.221Z,4.40
2017-12-06T06:15:09.414Z,4.30
2017-12-06T06:17:35.638Z,4.20
2017-12-06T06:20:01.858Z,4.10
2017-12-06T06:22:28.103Z,4.00
2017-12-06T06:24:54.340Z,4.10
2017-12-06T06:27:20.523Z,4.10
2017-12-06T06:29:46.757Z,4.20
2017-12-06T06:32:12.952Z,4.00
2017-12-06T06:34:39.180Z,4.10
2017-12-06T06:37:05.401Z,4.20
2017-12-06T06:39:31.624Z,4.20
2017-12-06T06:41:57.828Z,4.30
2017-12-06T06:44:24.052Z,4.10
2017-12-06T06:46:50.265Z,4.10
2017-12-06T06:49:16.833Z,4.30
2017-12-06T06:51:43.042Z,4.30
2017-12-06T06:54:09.760Z,4.40
2017-12-06T06:56:36.376Z,4.40
2017-12-06T06:59:03.158Z,4.40
2017-12-06T07:01:29.376Z,4.50
2017-12-06T07:03:55.961Z,4.30
2017-12-06T07:06:22.175Z,4.40
2017-12-06T07:08:48.425Z,4.40
2017-12-06T07:11:14.633Z,4.40
2017-12-06T07:13:41.209Z,4.30
2017-12-06T07:16:07.418Z,4.40
2017-12-06T07:18:34.234Z,4.60
2017-12-06T07:21:00.455Z,4.40
2017-12-06T07:23:26.662Z,4.40
2017-12-06T07:25:52.900Z,4.50
2017-12-06T07:28:19.154Z,4.70
2017-12-06T07:30:45.664Z,4.50
2017-12-06T07:33:12.463Z,4.50
2017-12-06T07:35:38.733Z,4.50
2017-12-06T07:38:04.988Z,4.60
2017-12-06T07:40:31.217Z,4.60
2017-12-06T07:42:57.424Z,4.40
2017-12-06T07:45:23.662Z,4.40
2017-12-06T07:47:49.860Z,4.50
2017-12-06T07:50:16.431Z,4.50
2017-12-06T07:52:43.602Z,4.50
2017-12-06T07:55:09.790Z,4.60
2017-12-06T07:57:36.051Z,4.60
2017-12-06T08:00:02.297Z,4.40
2017-12-06T08:02:28.545Z,4.40
2017-12-06T08:04:55.120Z,4.70
2017-12-06T08:07:21.366Z,4.70
2017-12-06T08:09:47.578Z,4.60
2017-12-06T08:12:13.813Z,4.70
2017-12-06T08:14:40.039Z,4.50
2017-12-06T08:17:06.252Z,4.60
2017-12-06T08:19:32.488Z,4.60
2017-12-06T08:21:58.737Z,4.60
2017-12-06T08:24:25.004Z,4.70
2017-12-06T08:26:51.247Z,4.70
2017-12-06T08:29:17.471Z,4.70
2017-12-06T08:31:44.053Z,4.80
2017-12-06T08:34:10.338Z,4.80
2017-12-06T08:36:36.575Z,4.80
2017-12-06T08:39:02.865Z,4.80
2017-12-06T08:41:29.080Z,4.80
2017-12-06T08:43:55.292Z,4.80
2017-12-06T08:46:21.939Z,5.00
2017-12-06T08:48:48.171Z,4.80
2017-12-06T08:51:14.386Z,4.40
2017-12-06T08:53:40.646Z,4.30
2017-12-06T08:56:06.872Z,4.30
2017-12-06T08:58:33.087Z,4.40
2017-12-06T09:01:00.409Z,4.40
2017-12-06T09:03:26.655Z,4.30
2017-12-06T09:05:52.868Z,4.40
2017-12-06T09:08:19.145Z,4.60
2017-12-06T09:10:45.381Z,4.80
2017-12-06T09:13:11.987Z,5.00
2017-12-06T09:15:38.192Z,5.00
2017-12-06T09:18:04.447Z,4.80
2017-12-06T09:20:30.674Z,4.80
2017-12-06T09:22:56.901Z,4.80
2017-12-06T09:25:23.139Z,4.90
2017-12-06T09:27:49.358Z,5.10
2017-12-06T09:30:15.630Z,5.20
2017-12-06T09:32:41.861Z,5.10
2017-12-06T09:35:08.116Z,5.20
2017-12-06T09:37:34.329Z,5.30
2017-12-06T09:40:00.593Z,5.50
2017-12-06T09:42:26.857Z,5.50
2017-12-06T09:44:53.491Z,5.20
2017-12-06T09:47:20.130Z,5.20
2017-12-06T09:49:46.715Z,4.90
2017-12-06T09:52:12.927Z,4.90
2017-12-06T09:54:39.141Z,4.80
2017-12-06T09:57:05.410Z,5.00
2017-12-06T09:59:32.460Z,5.20
2017-12-06T10:01:58.702Z,5.30
2017-12-06T10:04:25.757Z,5.40
2017-12-06T10:06:51.998Z,5.60
2017-12-06T10:09:18.583Z,5.40
2017-12-06T10:11:44.788Z,5.40
2017-12-06T10:14:11.004Z,5.50
2017-12-06T10:16:37.598Z,5.50
2017-12-06T10:19:03.830Z,5.50
2017-12-06T10:21:31.566Z,5.50
2017-12-06T10:23:58.376Z,5.50
2017-12-06T10:26:24.993Z,5.70
2017-12-06T10:28:51.222Z,5.70
2017-12-06T10:31:17.858Z,5.90
2017-12-06T10:33:44.096Z,5.90
2017-12-06T10:36:10.340Z,5.90
2017-12-06T10:38:37.279Z,6.00
2017-12-06T10:41:03.905Z,5.60
2017-12-06T10:43:31.407Z,5.70
2017-12-06T10:45:57.688Z,5.70
2017-12-06T10:48:24.536Z,5.70
2017-12-06T10:50:50.812Z,5.80
2017-12-06T10:53:17.117Z,5.70
2017-12-06T10:55:43.349Z,5.90
2017-12-06T10:58:09.551Z,5.90
2017-12-06T11:00:36.153Z,6.20
2017-12-06T11:03:02.404Z,6.20
2017-12-06T11:05:28.652Z,6.20
2017-12-06T11:07:56.293Z,5.80
2017-12-06T11:10:22.480Z,5.80
2017-12-06T11:12:48.696Z,5.80
2017-12-06T11:15:14.949Z,5.90
2017-12-06T11:17:41.255Z,6.20
2017-12-06T11:20:07.556Z,6.40
2017-12-06T11:22:33.756Z,6.70
2017-12-06T11:24:59.982Z,6.80
2017-12-06T11:27:26.249Z,6.70
2017-12-06T11:29:52.456Z,6.60
2017-12-06T11:32:18.702Z,6.60
2017-12-06T11:34:44.963Z,6.60
2017-12-06T11:37:11.185Z,6.30
2017-12-06T11:39:37.412Z,6.50
2017-12-06T11:42:03.643Z,6.30
2017-12-06T11:44:29.857Z,6.30
2017-12-06T11:46:56.061Z,6.40
2017-12-06T11:49:22.662Z,6.60
2017-12-06T11:51:49.204Z,6.60
2017-12-06T11:54:15.450Z,6.40
2017-12-06T11:56:42.019Z,6.40
2017-12-06T11:59:08.260Z,6.40
2017-12-06T12:01:34.488Z,6.20
2017-12-06T12:04:00.735Z,6.30
2017-12-06T12:06:26.950Z,6.50
2017-12-06T12:08:53.196Z,6.40
2017-12-06T12:11:19.388Z,6.40
2017-12-06T12:13:45.617Z,6.20
2017-12-06T12:16:12.894Z,6.00
2017-12-06T12:18:39.133Z,6.00
2017-12-06T12:21:05.353Z,6.30
2017-12-06T12:23:31.592Z,6.20
2017-12-06T12:25:57.849Z,6.20
2017-12-06T12:28:24.459Z,6.20
2017-12-06T12:30:50.673Z,6.20
2017-12-06T12:33:16.946Z,6.20
2017-12-06T12:35:43.533Z,6.00
2017-12-06T12:38:09.836Z,6.00
2017-12-06T12:40:36.097Z,5.80
2017-12-06T12:43:02.357Z,6.00
2017-12-06T12:45:28.604Z,5.80
2017-12-06T12:47:56.022Z,5.50
2017-12-06T12:50:22.318Z,5.50
2017-12-06T12:52:48.600Z,5.60
2017-12-06T12:55:14.935Z,6.00
2017-12-06T12:57:41.541Z,6.00
2017-12-06T13:00:08.387Z,6.00
2017-12-06T13:02:36.460Z,6.10
2017-12-06T13:05:02.709Z,6.00
2017-12-06T13:07:29.392Z,5.80
2017-12-06T13:09:55.721Z,5.80
2017-12-06T13:12:22.597Z,5.80
2017-12-06T13:14:48.903Z,6.10
2017-12-06T13:17:15.172Z,6.10
2017-12-06T13:19:41.436Z,6.20
2017-12-06T13:22:08.706Z,6.40
2017-12-06T13:24:35.075Z,6.40
2017-12-06T13:27:01.345Z,6.40
2017-12-06T13:29:27.644Z,6.60
2017-12-06T13:31:53.935Z,6.70
2017-12-06T13:34:20.191Z,6.70
2017-12-06T13:36:46.490Z,6.60
2017-12-06T13:39:12.781Z,6.50
2017-12-06T13:41:39.140Z,6.50
2017-12-06T13:44:05.433Z,6.70
2017-12-06T13:46:32.122Z,6.30
2017-12-06T13:48:58.393Z,6.30
2017-12-06T13:51:24.682Z,6.20
2017-12-06T13:53:51.002Z,6.10
2017-12-06T13:56:17.253Z,6.00
2017-12-06T13:58:43.553Z,5.90
2017-12-06T14:01:09.855Z,5.90
2017-12-06T14:03:36.144Z,5.90
2017-12-06T14:06:02.451Z,5.90
2017-12-06T14:08:30.632Z,6.00
2017-12-06T14:10:56.871Z,6.20
2017-12-06T14:13:23.824Z,6.30
2017-12-06T14:15:50.081Z,6.50
2017-12-06T14:18:16.807Z,6.50
2017-12-06T14:20:43.053Z,6.20
2017-12-06T14:23:09.714Z,6.20
2017-12-06T14:25:36.043Z,6.20
2017-12-06T14:28:02.353Z,6.20
2017-12-06T14:30:29.026Z,6.30
2017-12-06T14:32:55.298Z,6.30
2017-12-06T14:35:21.599Z,6.10
2017-12-06T14:37:47.894Z,6.20
2017-12-06T14:40:14.176Z,6.30
2017-12-06T14:42:40.470Z,6.20
2017-12-06T14:45:06.755Z,6.10
2017-12-06T14:47:33.137Z,5.90
2017-12-06T14:49:59.405Z,5.90
2017-12-06T14:52:25.664Z,5.80
2017-12-06T14:54:52.264Z,5.70
2017-12-06T14:57:18.490Z,5.70
2017-12-06T14:59:44.759Z,5.70
2017-12-06T15:02:12.875Z,5.80
2017-12-06T15:04:39.153Z,5.80
2017-12-06T15:07:05.431Z,5.80
2017-12-06T15:09:31.688Z,5.80
2017-12-06T15:11:57.986Z,5.80
2017-12-06T15:14:24.286Z,5.80
2017-12-06T15:16:51.144Z,5.70
2017-12-06T15:19:17.421Z,5.70
2017-12-06T15:21:43.669Z,5.60
2017-12-06T15:24:10.317Z,5.60
2017-12-06T15:26:36.656Z,5.60
2017-12-06T15:29:02.921Z,5.50
2017-12-06T15:31:29.198Z,5.50
2017-12-06T15:33:55.825Z,5.60
2017-12-06T15:36:22.473Z,5.50
2017-12-06T15:38:49.088Z,5.60
2017-12-06T15:41:15.564Z,5.60
2017-12-06T15:43:43.219Z,5.80
2017-12-06T15:46:09.460Z,5.70
2017-12-06T15:48:35.768Z,5.70
2017-12-06T15:51:02.004Z,5.70
2017-12-06T15:53:28.270Z,5.60
2017-12-06T15:55:54.508Z,5.50
2017-12-06T15:58:20.819Z,5.50
2017-12-06T16:00:47.056Z,5.40
2017-12-06T16:03:13.316Z,5.40
2017-12-06T16:05:39.603Z,5.40
2017-12-06T16:08:05.832Z,5.20
2017-12-06T16:10:32.109Z,5.20
2017-12-06T16:12:58.407Z,5.30
2017-12-06T16:15:24.660Z,5.40
2017-12-06T16:17:50.923Z,5.50
2017-12-06T16:20:17.158Z,5.60
2017-12-06T16:22:43.371Z,5.60
2017-12-06T16:25:10.107Z,5.60
2017-12-06T16:27:47.095Z,5.60
2017-12-06T16:30:13.433Z,5.60
2017-12-06T16:32:39.733Z,5.50
2017-12-06T16:35:31.120Z,5.50
2017-12-06T16:37:57.358Z,5.40
2017-12-06T16:40:23.681Z,5.50
2017-12-06T16:42:49.988Z,5.50
2017-12-06T16:45:16.262Z,5.40
2017-12-06T16:47:42.567Z,5.30
2017-12-06T16:50:08.879Z,5.30
2017-12-06T16:52:35.140Z,5.20
2017-12-06T16:55:01.404Z,5.00
2017-12-06T16:57:28.049Z,5.10
2017-12-06T16:59:54.341Z,5.10
2017-12-06T17:02:21.469Z,5.20
2017-12-06T17:04:47.780Z,5.20
2017-12-06T17:07:14.092Z,5.20
2017-12-06T17:09:40.396Z,5.20
2017-12-06T17:12:06.672Z,5.30
2017-12-06T17:14:32.928Z,5.30
2017-12-06T17:16:59.229Z,5.40
2017-12-06T17:19:25.472Z,5.30
2017-12-06T17:21:51.727Z,5.30
2017-12-06T17:24:18.584Z,5.30
2017-12-06T17:26:44.874Z,5.20
2017-12-06T17:29:23.416Z,5.30
2017-12-06T17:31:49.710Z,5.30
2017-12-06T17:34:16.024Z,5.30
2017-12-06T17:36:45.899Z,5.30
2017-12-06T17:39:12.175Z,5.20
2017-12-06T17:41:38.512Z,5.10
2017-12-06T17:44:05.339Z,5.20
2017-12-06T17:46:32.506Z,5.10
2017-12-06T17:48:58.748Z,5.10
2017-12-06T17:51:26.001Z,5.10
2017-12-06T17:53:52.341Z,5.30
2017-12-06T17:56:18.743Z,5.10
2017-12-06T17:58:45.031Z,5.10
2017-12-06T18:01:11.731Z,5.10
2017-12-06T18:03:38.058Z,5.10
2017-12-06T18:06:04.356Z,5.20
2017-12-06T18:08:31.278Z,5.20
2017-12-06T18:10:58.105Z,5.10
2017-12-06T18:13:25.559Z,5.10
2017-12-06T18:15:51.880Z,5.10
2017-12-06T18:18:18.884Z,4.90
2017-12-06T18:20:46.222Z,4.90
2017-12-06T18:23:12.514Z,4.70
2017-12-06T18:25:39.388Z,4.80
2017-12-06T18:28:05.680Z,4.80
2017-12-06T18:30:32.928Z,4.90
2017-12-06T18:32:59.270Z,5.00
2017-12-06T18:35:25.600Z,5.10
2017-12-06T18:37:51.892Z,5.10
2017-12-06T18:40:18.211Z,5.10
2017-12-06T18:42:45.336Z,5.10
2017-12-06T18:45:11.687Z,5.10
2017-12-06T18:47:38.642Z,4.90
2017-12-06T18:50:05.005Z,4.70
2017-12-06T18:52:31.285Z,4.60
2017-12-06T18:54:57.551Z,4.70
2017-12-06T18:57:23.880Z,4.70
2017-12-06T18:59:50.163Z,4.70
2017-12-06T19:02:17.032Z,4.80
2017-12-06T19:04:43.348Z,4.90
2017-12-06T19:07:09.656Z,4.90
2017-12-06T19:09:37.233Z,5.10
2017-12-06T19:12:05.245Z,5.10
2017-12-06T19:14:31.524Z,5.10
2017-12-06T19:16:58.530Z,5.00
2017-12-06T19:19:25.748Z,5.00
2017-12-06T19:21:52.114Z,4.70
2017-12-06T19:24:18.430Z,4.70
2017-12-06T19:26:44.775Z,4.70
2017-12-06T19:29:11.103Z,4.60
2017-12-06T19:31:37.410Z,4.70
2017-12-06T19:34:03.697Z,4.60
2017-12-06T19:36:29.970Z,4.60
2017-12-06T19:38:56.257Z,4.60
2017-12-06T19:41:22.898Z,4.70
2017-12-06T19:43:49.219Z,4.70
2017-12-06T19:46:15.516Z,4.50
2017-12-06T19:48:41.885Z,4.50
2017-12-06T19:51:08.190Z,4.50
2017-12-06T19:53:34.489Z,4.40
2017-12-06T19:56:00.825Z,4.40
2017-12-06T19:58:27.827Z,4.50
2017-12-06T20:00:54.137Z,4.50
2017-12-06T20:03:21.157Z,4.40
2017-12-06T20:05:47.488Z,4.40
2017-12-06T20:08:13.764Z,4.40
2017-12-06T20:10:40.138Z,4.40
2017-12-06T20:13:06.447Z,4.50
2017-12-06T20:15:32.722Z,4.40
2017-12-06T20:17:59.039Z,4.40
2017-12-06T20:20:25.625Z,4.40
2017-12-06T20:22:52.669Z,4.30
2017-12-06T20:25:19.975Z,4.30
2017-12-06T20:27:48.073Z,4.20
2017-12-06T20:30:15.621Z,4.10
2017-12-06T20:32:42.011Z,4.10
2017-12-06T20:35:08.301Z,4.00
2017-12-06T20:37:35.100Z,3.70
2017-12-06T20:40:01.796Z,3.70
2017-12-06T20:42:29.762Z,3.40
2017-12-06T20:44:56.962Z,3.50
2017-12-06T20:47:25.111Z,3.30
2017-12-06T20:49:51.503Z,3.30
2017-12-06T20:52:17.771Z,3.40
2017-12-06T20:54:44.072Z,3.60
2017-12-06T20:57:10.397Z,3.70
2017-12-06T20:59:36.698Z,3.40
2017-12-06T21:02:03.627Z,3.50
2017-12-06T21:04:29.921Z,3.50
2017-12-06T21:06:56.184Z,3.50
2017-12-06T21:09:22.527Z,3.30
2017-12-06T21:11:48.818Z,3.20
2017-12-06T21:14:15.083Z,3.00
2017-12-06T21:16:41.359Z,3.00
2017-12-06T21:19:07.597Z,3.10
2017-12-06T21:21:34.687Z,3.10
2017-12-06T21:24:00.990Z,3.10
2017-12-06T21:26:27.281Z,3.10
2017-12-06T21:28:53.897Z,3.00
2017-12-06T21:31:20.148Z,2.90
2017-12-06T21:33:46.775Z,3.10
2017-12-06T21:36:13.368Z,3.20
2017-12-06T21:38:39.597Z,3.20
2017-12-06T21:41:05.857Z,3.30
2017-12-06T21:43:32.054Z,3.30
2017-12-06T21:45:59.127Z,3.50
2017-12-06T21:48:26.220Z,3.40
2017-12-06T21:50:52.458Z,3.40
2017-12-06T21:53:18.718Z,3.50
2017-12-06T21:55:44.912Z,3.50
2017-12-06T21:58:11.199Z,3.30
2017-12-06T22:00:38.366Z,3.50
2017-12-06T22:03:05.018Z,3.30
2017-12-06T22:05:31.299Z,3.30
2017-12-06T22:07:57.514Z,3.40
2017-12-06T22:10:23.752Z,3.40
2017-12-06T22:12:50.020Z,3.50
2017-12-06T22:15:16.227Z,3.40
2017-12-06T22:17:42.478Z,3.40
2017-12-06T22:20:08.722Z,3.40
2017-12-06T22:22:34.973Z,3.40
2017-12-06T22:25:01.193Z,3.50
2017-12-06T22:27:27.432Z,3.50
2017-12-06T22:29:53.677Z,3.60
2017-12-06T22:32:19.880Z,3.60
2017-12-06T22:34:46.089Z,3.50
2017-12-06T22:37:12.349Z,3.50
2017-12-06T22:39:38.562Z,3.50
2017-12-06T22:42:04.797Z,3.20
2017-12-06T22:44:31.045Z,3.00
2017-12-06T22:46:57.304Z,2.90
2017-12-06T22:49:23.920Z,2.80
2017-12-06T22:51:50.161Z,2.80
2017-12-06T22:54:16.753Z,3.00
2017-12-06T22:56:43.058Z,3.00
2017-12-06T22:59:09.291Z,2.90
2017-12-06T23:01:35.529Z,2.80
2017-12-06T23:04:01.800Z,2.70
2017-12-06T23:06:28.056Z,2.50
2017-12-06T23:08:54.307Z,2.50
2017-12-06T23:11:20.523Z,2.40
2017-12-06T23:13:46.790Z,2.30
2017-12-06T23:16:13.080Z,2.40
2017-12-06T23:18:39.297Z,2.50
2017-12-06T23:21:05.906Z,2.30
2017-12-06T23:23:32.153Z,2.40
2017-12-06T23:25:58.783Z,2.10
2017-12-06T23:28:25.389Z,2.20
2017-12-06T23:30:51.628Z,2.20
2017-12-06T23:33:17.871Z,2.30
2017-12-06T23:35:44.150Z,2.40
2017-12-06T23:38:10.397Z,2.30
2017-12-06T23:40:36.640Z,2.30
2017-12-06T23:43:02.899Z,2.20
2017-12-06T23:45:29.170Z,2.20
2017-12-06T23:47:55.363Z,2.40
2017-12-06T23:50:21.620Z,2.50
2017-12-06T23:52:47.831Z,2.60
2017-12-06T23:55:14.048Z,2.50
2017-12-06T23:57:41.303Z,2.60
